Saffet Bey — TCUZ — position and weather

sailwx.info

Track history (hours):
 
Tides and Currents Weather Stations Pressure Air Temp Water Temp Dewpoint Dewpoint Depression Visibility Wind Speed Wind Dir Waves Ship Positions

Saffet Bey

Last reported at 2017-Aug-24 05:00 UTC. Time now 2017-Aug-24 05:01 UTC.
Position N 45°38' E 013°46'.

Length 164 m; draft 6.9 m.

Type: Cargo ship. MMSI: 271000419.

Date/timePositionNaut miles runAvg speedWind from/ knotsBaromVisibWave heightAir tempDewpointWater temp
2017-Aug-24 05:00N 45°38' E 013°46'0 0.0
2017-Aug-24 04:30N 45°38' E 013°46'0 0.0
2017-Aug-24 04:00N 45°38' E 013°46'0 0.0
2017-Aug-24 03:30N 45°38' E 013°46'0 0.0
2017-Aug-24 03:00N 45°38' E 013°46'0 0.0
2017-Aug-24 02:30N 45°38' E 013°46'0 0.0
2017-Aug-24 02:00N 45°38' E 013°46'0 0.0
2017-Aug-24 01:30N 45°38' E 013°46'0 0.0
2017-Aug-24 01:00N 45°38' E 013°46'0 0.0
2017-Aug-24 00:30N 45°38' E 013°46'0 0.0
2017-Aug-24 00:00N 45°38' E 013°46'0 0.0
2017-Aug-23 23:30N 45°38' E 013°46'0 0.0
2017-Aug-23 23:00N 45°38' E 013°46'0 0.0
2017-Aug-23 22:30N 45°38' E 013°46'0 0.0
2017-Aug-23 22:00N 45°38' E 013°46'0 0.0
2017-Aug-23 21:30N 45°38' E 013°46'0 0.0
2017-Aug-23 21:00N 45°38' E 013°46'0 0.0
2017-Aug-23 20:30N 45°38' E 013°46'2 4.6
2017-Aug-23 20:00N 45°39' E 013°43'510.7
2017-Aug-23 19:30N 45°36' E 013°36'815.0
2017-Aug-23 19:00N 45°32' E 013°27'815.4
2017-Aug-23 18:30N 45°27' E 013°18'714.2
2017-Aug-23 18:00N 45°21' E 013°13'815.4
2017-Aug-23 17:30N 45°14' E 013°15'815.3
2017-Aug-23 17:00N 45°06' E 013°18'815.1
2017-Aug-23 16:30N 44°59' E 013°22'815.4
2017-Aug-23 16:00N 44°53' E 013°28'715.0
2017-Aug-23 15:30N 44°47' E 013°34'714.8
2017-Aug-23 15:00N 44°40' E 013°39'714.6
2017-Aug-23 14:30N 44°34' E 013°44'1514.9
2017-Aug-23 13:30N 44°21' E 013°56'815.0
2017-Aug-23 13:00N 44°15' E 014°01'1514.9
2017-Aug-23 12:01N 44°03' E 014°13'014.4
2017-Aug-23 12:00N 44°03' E 014°13'63212.5
2017-Aug-21 09:34N 37°14' E 024°48'115.3
2017-Aug-21 09:30N 37°15' E 024°49'815.2
2017-Aug-21 09:00N 37°20' E 024°56'815.5
2017-Aug-21 08:30N 37°24' E 025°04'815.7
2017-Aug-21 08:01N 37°29' E 025°12'815.8
2017-Aug-21 07:30N 37°34' E 025°20'815.6
2017-Aug-21 07:00N 37°39' E 025°27'815.7
2017-Aug-21 06:30N 37°45' E 025°34'815.4
2017-Aug-21 06:00N 37°50' E 025°41'0 0.0
2017-Aug-20 08:57N 37°51' E 025°41'614.0
2017-Aug-20 08:30N 37°46' E 025°35'713.9
2017-Aug-20 08:00N 37°41' E 025°29'713.3
2017-Aug-20 07:30N 37°36' E 025°24'612.5
2017-Aug-20 07:00N 37°32' E 025°18'611.8
2017-Aug-20 06:30N 37°29' E 025°12'713.3
2017-Aug-20 06:00N 37°25' E 025°05'713.3
2017-Aug-20 05:30N 37°21' E 024°59'713.3
2017-Aug-20 05:00N 37°17' E 024°52'16012.7
2017-Aug-19 16:24N 36°46' E 021°35'614.8
2017-Aug-19 16:00N 36°51' E 021°31'714.9
2017-Aug-19 15:30N 36°57' E 021°25'714.9
2017-Aug-19 15:00N 37°03' E 021°20'1515.1
2017-Aug-19 14:00N 37°14' E 021°07'715.2
2017-Aug-19 13:30N 37°20' E 021°01'815.5
2017-Aug-19 13:01N 37°26' E 020°56'815.3
2017-Aug-19 12:30N 37°32' E 020°50'715.0
2017-Aug-19 12:01N 37°38' E 020°44'815.2
2017-Aug-19 11:30N 37°44' E 020°38'815.4
2017-Aug-19 11:00N 37°50' E 020°31'815.5
2017-Aug-19 10:30N 37°56' E 020°25'815.2
2017-Aug-19 10:01N 38°02' E 020°19'815.1
2017-Aug-19 09:31N 38°08' E 020°13'815.1
2017-Aug-19 09:01N 38°14' E 020°09'815.1
2017-Aug-19 08:31N 38°21' E 020°04'815.3
2017-Aug-19 08:00N 38°28' E 019°59'815.2
2017-Aug-19 07:31N 38°34' E 019°55'815.1
2017-Aug-19 07:00N 38°41' E 019°50'815.1
2017-Aug-19 06:30N 38°47' E 019°45'1115.2
2017-Aug-19 05:46N 38°57' E 019°38'415.2
2017-Aug-19 05:30N 39°01' E 019°35'815.3
2017-Aug-19 05:00N 39°07' E 019°31'815.2
2017-Aug-19 04:30N 39°14' E 019°26'2515.6
2017-Aug-19 02:56N 39°36' E 019°11'715.1
2017-Aug-19 02:29N 39°42' E 019°06'715.2
2017-Aug-19 02:00N 39°48' E 019°02'815.0
2017-Aug-19 01:30N 39°54' E 018°57'715.0
2017-Aug-19 01:01N 40°01' E 018°52'815.0
2017-Aug-19 00:30N 40°07' E 018°47'815.3
2017-Aug-19 00:00N 40°14' E 018°42'3214.9
2017-Aug-18 21:53N 40°39' E 018°16'615.3
2017-Aug-18 21:29N 40°43' E 018°11'714.9
2017-Aug-18 20:59N 40°48' E 018°04'815.0
2017-Aug-18 20:25N 40°54' E 017°56'1215.3
2017-Aug-18 19:39N 41°02' E 017°45'22714.8
2017-Aug-18 04:17N 43°51' E 014°19'414.9
2017-Aug-18 04:00N 43°54' E 014°16'714.7
2017-Aug-18 03:30N 44°00' E 014°09'714.8
2017-Aug-18 03:00N 44°06' E 014°03'815.3
2017-Aug-18 02:30N 44°12' E 013°57'815.2
2017-Aug-18 01:59N 44°19' E 013°51'715.0
2017-Aug-18 01:30N 44°25' E 013°45'715.0
2017-Aug-18 01:01N 44°31' E 013°39'815.3
2017-Aug-18 00:31N 44°38' E 013°33'815.3
2017-Aug-18 00:00N 44°44' E 013°28'715.0
2017-Aug-17 23:30N 44°50' E 013°22'815.1
2017-Aug-17 23:01N 44°57' E 013°17'815.2
2017-Aug-17 22:30N 45°03' E 013°10'815.3
2017-Aug-17 22:01N 45°09' E 013°04'815.5
2017-Aug-17 21:30N 45°17' E 013°02'713.7
2017-Aug-17 21:01N 45°24' E 013°04'815.2
2017-Aug-17 20:30N 45°29' E 013°12'815.2
2017-Aug-17 20:01N 45°34' E 013°21'714.6
2017-Aug-17 19:30N 45°37' E 013°30'713.8
2017-Aug-17 19:00N 45°39' E 013°39'5 9.4
2017-Aug-17 18:30N 45°38' E 013°46'0 0.0
2017-Aug-17 18:00N 45°38' E 013°46'0 0.0
2017-Aug-17 17:30N 45°38' E 013°46'0 0.0
2017-Aug-17 17:00N 45°38' E 013°46'0 0.0
2017-Aug-17 16:30N 45°38' E 013°46'0 0.0
2017-Aug-17 16:00N 45°38' E 013°46'0 0.0
2017-Aug-17 15:30N 45°38' E 013°46'0 0.0
2017-Aug-17 15:00N 45°38' E 013°46'0 0.0
2017-Aug-17 14:30N 45°38' E 013°46'0 0.0
2017-Aug-17 14:00N 45°38' E 013°46'0 0.0
2017-Aug-17 13:30N 45°38' E 013°46'0 0.0
2017-Aug-17 13:00N 45°38' E 013°46'0 0.0
2017-Aug-17 12:30N 45°38' E 013°46'0 0.0
2017-Aug-17 12:00N 45°38' E 013°46'0 0.0
2017-Aug-17 11:30N 45°38' E 013°46'0 0.0
2017-Aug-17 11:00N 45°38' E 013°46'0 0.0
2017-Aug-17 10:30N 45°38' E 013°46'0 0.0
2017-Aug-17 10:00N 45°38' E 013°46'0 0.0
2017-Aug-17 09:30N 45°38' E 013°46'0 0.0
2017-Aug-17 09:00N 45°38' E 013°46'0 0.0
2017-Aug-17 08:30N 45°38' E 013°46'0 0.0
2017-Aug-17 08:00N 45°38' E 013°46'0 0.0
2017-Aug-17 07:30N 45°38' E 013°46'0 0.0
2017-Aug-17 07:00N 45°38' E 013°46'0 0.0
2017-Aug-17 06:30N 45°38' E 013°46'0 0.0
2017-Aug-17 06:00N 45°38' E 013°46'0 0.0
2017-Aug-17 05:30N 45°38' E 013°46'0 0.0
2017-Aug-17 05:00N 45°38' E 013°46'0 0.0
2017-Aug-17 04:30N 45°38' E 013°46'0 0.0
2017-Aug-17 04:00N 45°38' E 013°46'0 0.0
2017-Aug-17 03:30N 45°38' E 013°46'0 0.0
2017-Aug-17 03:00N 45°38' E 013°46'0 0.0
2017-Aug-17 02:30N 45°38' E 013°46'0 0.0
2017-Aug-17 02:00N 45°38' E 013°46'0 0.0
2017-Aug-17 01:30N 45°38' E 013°46'0 0.0
2017-Aug-17 01:00N 45°38' E 013°46'0 0.0
2017-Aug-17 00:30N 45°38' E 013°46'0 0.0
2017-Aug-17 00:00N 45°38' E 013°46'0 0.0
2017-Aug-16 23:30N 45°38' E 013°46'0 0.0
2017-Aug-16 23:00N 45°38' E 013°46'0 0.0
2017-Aug-16 22:30N 45°38' E 013°46'0 0.0
2017-Aug-16 22:00N 45°38' E 013°46'0 0.0
2017-Aug-16 21:30N 45°38' E 013°46'0 0.0
2017-Aug-16 21:00N 45°38' E 013°46'0 0.0
2017-Aug-16 20:30N 45°38' E 013°46'0 0.0
2017-Aug-16 20:00N 45°38' E 013°46'0 0.0
2017-Aug-16 19:30N 45°38' E 013°46'1 2.6
2017-Aug-16 19:00N 45°38' E 013°44'4 7.7
2017-Aug-16 18:30N 45°38' E 013°38'714.1
2017-Aug-16 18:00N 45°34' E 013°30'714.3
2017-Aug-16 17:30N 45°29' E 013°22'714.5
2017-Aug-16 17:00N 45°24' E 013°15'713.6
2017-Aug-16 16:30N 45°17' E 013°15'714.7
2017-Aug-16 16:00N 45°10' E 013°16'714.7
2017-Aug-16 15:30N 45°03' E 013°19'714.6
2017-Aug-16 15:00N 44°57' E 013°24'714.6
2017-Aug-16 14:30N 44°50' E 013°29'714.1
2017-Aug-16 14:00N 44°44' E 013°34'714.0
2017-Aug-16 13:30N 44°38' E 013°40'714.2
2017-Aug-16 13:00N 44°32' E 013°45'714.2
2017-Aug-16 12:30N 44°26' E 013°50'714.5
2017-Aug-16 12:00N 44°20' E 013°56'714.6
2017-Aug-16 11:30N 44°14' E 014°02'1214.7
2017-Aug-16 10:43N 44°05' E 014°11'314.9
2017-Aug-16 10:29N 44°02' E 014°14'38813.9
2017-Aug-15 06:41N 39°03' E 019°43'613.9
2017-Aug-15 06:15N 38°57' E 019°46'414.1
2017-Aug-15 06:00N 38°54' E 019°48'714.0
2017-Aug-15 05:30N 38°48' E 019°52'713.7
2017-Aug-15 05:00N 38°41' E 019°55'713.9
2017-Aug-15 04:30N 38°35' E 019°59'713.8
2017-Aug-15 04:00N 38°29' E 020°03'23711.1
2017-Aug-14 06:43N 37°14' E 024°48'316.1
2017-Aug-14 06:30N 37°16' E 024°51'815.9
2017-Aug-14 06:00N 37°21' E 024°59'815.3
2017-Aug-14 05:30N 37°26' E 025°07'815.0
2017-Aug-14 05:00N 37°30' E 025°15'  
Track history (hours):
 
Tides and Currents Weather Stations Pressure Air Temp Water Temp Dewpoint Dewpoint Depression Visibility Wind Speed Wind Dir Waves Ship Positions

Saffet Bey

Last reported at 2017-Aug-24 05:00 UTC. Time now 2017-Aug-24 05:01 UTC.
Position N 45°38' E 013°46'.

Length 164 m; draft 6.9 m.

Type: Cargo ship. MMSI: 271000419.

Date/timePositionNaut miles runAvg speedWind from/ knotsBaromVisibWave heightAir tempDewpointWater temp
2017-Aug-24 05:00N 45°38' E 013°46'0 0.0
2017-Aug-24 04:30N 45°38' E 013°46'0 0.0
2017-Aug-24 04:00N 45°38' E 013°46'0 0.0
2017-Aug-24 03:30N 45°38' E 013°46'0 0.0
2017-Aug-24 03:00N 45°38' E 013°46'0 0.0
2017-Aug-24 02:30N 45°38' E 013°46'0 0.0
2017-Aug-24 02:00N 45°38' E 013°46'0 0.0
2017-Aug-24 01:30N 45°38' E 013°46'0 0.0
2017-Aug-24 01:00N 45°38' E 013°46'0 0.0
2017-Aug-24 00:30N 45°38' E 013°46'0 0.0
2017-Aug-24 00:00N 45°38' E 013°46'0 0.0
2017-Aug-23 23:30N 45°38' E 013°46'0 0.0
2017-Aug-23 23:00N 45°38' E 013°46'0 0.0
2017-Aug-23 22:30N 45°38' E 013°46'0 0.0
2017-Aug-23 22:00N 45°38' E 013°46'0 0.0
2017-Aug-23 21:30N 45°38' E 013°46'0 0.0
2017-Aug-23 21:00N 45°38' E 013°46'0 0.0
2017-Aug-23 20:30N 45°38' E 013°46'2 4.6
2017-Aug-23 20:00N 45°39' E 013°43'510.7
2017-Aug-23 19:30N 45°36' E 013°36'815.0
2017-Aug-23 19:00N 45°32' E 013°27'815.4
2017-Aug-23 18:30N 45°27' E 013°18'714.2
2017-Aug-23 18:00N 45°21' E 013°13'815.4
2017-Aug-23 17:30N 45°14' E 013°15'815.3
2017-Aug-23 17:00N 45°06' E 013°18'815.1
2017-Aug-23 16:30N 44°59' E 013°22'815.4
2017-Aug-23 16:00N 44°53' E 013°28'715.0
2017-Aug-23 15:30N 44°47' E 013°34'714.8
2017-Aug-23 15:00N 44°40' E 013°39'714.6
2017-Aug-23 14:30N 44°34' E 013°44'1514.9
2017-Aug-23 13:30N 44°21' E 013°56'815.0
2017-Aug-23 13:00N 44°15' E 014°01'1514.9
2017-Aug-23 12:01N 44°03' E 014°13'014.4
2017-Aug-23 12:00N 44°03' E 014°13'63212.5
2017-Aug-21 09:34N 37°14' E 024°48'115.3
2017-Aug-21 09:30N 37°15' E 024°49'815.2
2017-Aug-21 09:00N 37°20' E 024°56'815.5
2017-Aug-21 08:30N 37°24' E 025°04'815.7
2017-Aug-21 08:01N 37°29' E 025°12'815.8
2017-Aug-21 07:30N 37°34' E 025°20'815.6
2017-Aug-21 07:00N 37°39' E 025°27'815.7
2017-Aug-21 06:30N 37°45' E 025°34'815.4
2017-Aug-21 06:00N 37°50' E 025°41'0 0.0
2017-Aug-20 08:57N 37°51' E 025°41'614.0
2017-Aug-20 08:30N 37°46' E 025°35'713.9
2017-Aug-20 08:00N 37°41' E 025°29'713.3
2017-Aug-20 07:30N 37°36' E 025°24'612.5
2017-Aug-20 07:00N 37°32' E 025°18'611.8
2017-Aug-20 06:30N 37°29' E 025°12'713.3
2017-Aug-20 06:00N 37°25' E 025°05'713.3
2017-Aug-20 05:30N 37°21' E 024°59'713.3
2017-Aug-20 05:00N 37°17' E 024°52'16012.7
2017-Aug-19 16:24N 36°46' E 021°35'614.8
2017-Aug-19 16:00N 36°51' E 021°31'714.9
2017-Aug-19 15:30N 36°57' E 021°25'714.9
2017-Aug-19 15:00N 37°03' E 021°20'1515.1
2017-Aug-19 14:00N 37°14' E 021°07'715.2
2017-Aug-19 13:30N 37°20' E 021°01'815.5
2017-Aug-19 13:01N 37°26' E 020°56'815.3
2017-Aug-19 12:30N 37°32' E 020°50'715.0
2017-Aug-19 12:01N 37°38' E 020°44'815.2
2017-Aug-19 11:30N 37°44' E 020°38'815.4
2017-Aug-19 11:00N 37°50' E 020°31'815.5
2017-Aug-19 10:30N 37°56' E 020°25'815.2
2017-Aug-19 10:01N 38°02' E 020°19'815.1
2017-Aug-19 09:31N 38°08' E 020°13'815.1
2017-Aug-19 09:01N 38°14' E 020°09'815.1
2017-Aug-19 08:31N 38°21' E 020°04'815.3
2017-Aug-19 08:00N 38°28' E 019°59'815.2
2017-Aug-19 07:31N 38°34' E 019°55'815.1
2017-Aug-19 07:00N 38°41' E 019°50'815.1
2017-Aug-19 06:30N 38°47' E 019°45'1115.2
2017-Aug-19 05:46N 38°57' E 019°38'415.2
2017-Aug-19 05:30N 39°01' E 019°35'815.3
2017-Aug-19 05:00N 39°07' E 019°31'815.2
2017-Aug-19 04:30N 39°14' E 019°26'2515.6
2017-Aug-19 02:56N 39°36' E 019°11'715.1
2017-Aug-19 02:29N 39°42' E 019°06'715.2
2017-Aug-19 02:00N 39°48' E 019°02'815.0
2017-Aug-19 01:30N 39°54' E 018°57'715.0
2017-Aug-19 01:01N 40°01' E 018°52'815.0
2017-Aug-19 00:30N 40°07' E 018°47'815.3
2017-Aug-19 00:00N 40°14' E 018°42'3214.9
2017-Aug-18 21:53N 40°39' E 018°16'615.3
2017-Aug-18 21:29N 40°43' E 018°11'714.9
2017-Aug-18 20:59N 40°48' E 018°04'815.0
2017-Aug-18 20:25N 40°54' E 017°56'1215.3
2017-Aug-18 19:39N 41°02' E 017°45'22714.8
2017-Aug-18 04:17N 43°51' E 014°19'414.9
2017-Aug-18 04:00N 43°54' E 014°16'714.7
2017-Aug-18 03:30N 44°00' E 014°09'714.8
2017-Aug-18 03:00N 44°06' E 014°03'815.3
2017-Aug-18 02:30N 44°12' E 013°57'815.2
2017-Aug-18 01:59N 44°19' E 013°51'715.0
2017-Aug-18 01:30N 44°25' E 013°45'715.0
2017-Aug-18 01:01N 44°31' E 013°39'815.3
2017-Aug-18 00:31N 44°38' E 013°33'815.3
2017-Aug-18 00:00N 44°44' E 013°28'715.0
2017-Aug-17 23:30N 44°50' E 013°22'815.1
2017-Aug-17 23:01N 44°57' E 013°17'815.2
2017-Aug-17 22:30N 45°03' E 013°10'815.3
2017-Aug-17 22:01N 45°09' E 013°04'815.5
2017-Aug-17 21:30N 45°17' E 013°02'713.7
2017-Aug-17 21:01N 45°24' E 013°04'815.2
2017-Aug-17 20:30N 45°29' E 013°12'815.2
2017-Aug-17 20:01N 45°34' E 013°21'714.6
2017-Aug-17 19:30N 45°37' E 013°30'713.8
2017-Aug-17 19:00N 45°39' E 013°39'5 9.4
2017-Aug-17 18:30N 45°38' E 013°46'0 0.0
2017-Aug-17 18:00N 45°38' E 013°46'0 0.0
2017-Aug-17 17:30N 45°38' E 013°46'0 0.0
2017-Aug-17 17:00N 45°38' E 013°46'0 0.0
2017-Aug-17 16:30N 45°38' E 013°46'0 0.0
2017-Aug-17 16:00N 45°38' E 013°46'0 0.0
2017-Aug-17 15:30N 45°38' E 013°46'0 0.0
2017-Aug-17 15:00N 45°38' E 013°46'0 0.0
2017-Aug-17 14:30N 45°38' E 013°46'0 0.0
2017-Aug-17 14:00N 45°38' E 013°46'0 0.0
2017-Aug-17 13:30N 45°38' E 013°46'0 0.0
2017-Aug-17 13:00N 45°38' E 013°46'0 0.0
2017-Aug-17 12:30N 45°38' E 013°46'0 0.0
2017-Aug-17 12:00N 45°38' E 013°46'0 0.0
2017-Aug-17 11:30N 45°38' E 013°46'0 0.0
2017-Aug-17 11:00N 45°38' E 013°46'0 0.0
2017-Aug-17 10:30N 45°38' E 013°46'0 0.0
2017-Aug-17 10:00N 45°38' E 013°46'0 0.0
2017-Aug-17 09:30N 45°38' E 013°46'0 0.0
2017-Aug-17 09:00N 45°38' E 013°46'0 0.0
2017-Aug-17 08:30N 45°38' E 013°46'0 0.0
2017-Aug-17 08:00N 45°38' E 013°46'0 0.0
2017-Aug-17 07:30N 45°38' E 013°46'0 0.0
2017-Aug-17 07:00N 45°38' E 013°46'0 0.0
2017-Aug-17 06:30N 45°38' E 013°46'0 0.0
2017-Aug-17 06:00N 45°38' E 013°46'0 0.0
2017-Aug-17 05:30N 45°38' E 013°46'0 0.0
2017-Aug-17 05:00N 45°38' E 013°46'0 0.0
2017-Aug-17 04:30N 45°38' E 013°46'0 0.0
2017-Aug-17 04:00N 45°38' E 013°46'0 0.0
2017-Aug-17 03:30N 45°38' E 013°46'0 0.0
2017-Aug-17 03:00N 45°38' E 013°46'0 0.0
2017-Aug-17 02:30N 45°38' E 013°46'0 0.0
2017-Aug-17 02:00N 45°38' E 013°46'0 0.0
2017-Aug-17 01:30N 45°38' E 013°46'0 0.0
2017-Aug-17 01:00N 45°38' E 013°46'0 0.0
2017-Aug-17 00:30N 45°38' E 013°46'0 0.0
2017-Aug-17 00:00N 45°38' E 013°46'0 0.0
2017-Aug-16 23:30N 45°38' E 013°46'0 0.0
2017-Aug-16 23:00N 45°38' E 013°46'0 0.0
2017-Aug-16 22:30N 45°38' E 013°46'0 0.0
2017-Aug-16 22:00N 45°38' E 013°46'0 0.0
2017-Aug-16 21:30N 45°38' E 013°46'0 0.0
2017-Aug-16 21:00N 45°38' E 013°46'0 0.0
2017-Aug-16 20:30N 45°38' E 013°46'0 0.0
2017-Aug-16 20:00N 45°38' E 013°46'0 0.0
2017-Aug-16 19:30N 45°38' E 013°46'1 2.6
2017-Aug-16 19:00N 45°38' E 013°44'4 7.7
2017-Aug-16 18:30N 45°38' E 013°38'714.1
2017-Aug-16 18:00N 45°34' E 013°30'714.3
2017-Aug-16 17:30N 45°29' E 013°22'714.5
2017-Aug-16 17:00N 45°24' E 013°15'713.6
2017-Aug-16 16:30N 45°17' E 013°15'714.7
2017-Aug-16 16:00N 45°10' E 013°16'714.7
2017-Aug-16 15:30N 45°03' E 013°19'714.6
2017-Aug-16 15:00N 44°57' E 013°24'714.6
2017-Aug-16 14:30N 44°50' E 013°29'714.1
2017-Aug-16 14:00N 44°44' E 013°34'714.0
2017-Aug-16 13:30N 44°38' E 013°40'714.2
2017-Aug-16 13:00N 44°32' E 013°45'714.2
2017-Aug-16 12:30N 44°26' E 013°50'714.5
2017-Aug-16 12:00N 44°20' E 013°56'714.6
2017-Aug-16 11:30N 44°14' E 014°02'1214.7
2017-Aug-16 10:43N 44°05' E 014°11'314.9
2017-Aug-16 10:29N 44°02' E 014°14'38813.9
2017-Aug-15 06:41N 39°03' E 019°43'613.9
2017-Aug-15 06:15N 38°57' E 019°46'414.1
2017-Aug-15 06:00N 38°54' E 019°48'714.0
2017-Aug-15 05:30N 38°48' E 019°52'713.7
2017-Aug-15 05:00N 38°41' E 019°55'713.9
2017-Aug-15 04:30N 38°35' E 019°59'713.8
2017-Aug-15 04:00N 38°29' E 020°03'23711.1
2017-Aug-14 06:43N 37°14' E 024°48'316.1
2017-Aug-14 06:30N 37°16' E 024°51'815.9
2017-Aug-14 06:00N 37°21' E 024°59'815.3
2017-Aug-14 05:30N 37°26' E 025°07'815.0
2017-Aug-14 05:00N 37°30' E 025°15'  

Dump ship's entire track history